Terminal Aerodrome Forecast
Issued by NWS Cleveland, OH

Home | Current Version | Previous Version | Text Only | Print | Product List | Glossary Off
Versions: 1 2 3 4 5 6 7 8 9 10 11 12 13 14 15

588
FTUS41 KCLE 212055 AAA
TAFERI
TAF AMD
KERI 212055Z 2121/2218 07009KT P6SM -SHRA SCT035 OVC060
      TEMPO 2121/2123 6SM -SHRA BKN018 OVC025
     FM220300 15003KT P6SM BKN035
     FM221400 34008KT P6SM VCSH OVC030=

USA.gov is the U.S. government's official web portal to all federal, state and local government web resources and services.